createdAt,value
2023-04-18T00:00:30.198Z,5.86
2023-04-18T00:05:31.901Z,5.87
2023-04-18T00:10:33.664Z,5.87
2023-04-18T00:15:35.681Z,5.86
2023-04-18T00:20:38.947Z,5.84
2023-04-18T00:25:41.333Z,5.83
2023-04-18T00:30:43.234Z,5.83
2023-04-18T00:35:45.082Z,5.79
2023-04-18T00:40:46.860Z,5.75
2023-04-18T00:45:48.634Z,5.73
2023-04-18T00:50:50.502Z,5.73
2023-04-18T00:55:53.541Z,5.73
2023-04-18T01:00:55.309Z,5.75
2023-04-18T01:05:57.484Z,5.75
2023-04-18T01:10:59.247Z,5.78
2023-04-18T01:16:01.141Z,5.74
2023-04-18T01:21:03.014Z,5.76
2023-04-18T01:26:05.419Z,5.79
2023-04-18T01:31:07.337Z,5.79
2023-04-18T01:36:09.163Z,5.79
2023-04-18T01:41:11.115Z,5.78
2023-04-18T01:46:12.982Z,5.73
2023-04-18T01:51:14.850Z,5.70
2023-04-18T01:56:16.993Z,5.69
2023-04-18T02:01:18.832Z,5.71
2023-04-18T02:06:20.715Z,5.73
2023-04-18T02:11:22.530Z,5.76
2023-04-18T02:16:24.359Z,5.79
2023-04-18T02:21:26.184Z,5.83
2023-04-18T02:26:27.942Z,5.82
2023-04-18T02:31:29.994Z,5.79
2023-04-18T02:36:31.917Z,5.78
2023-04-18T02:41:34.853Z,5.73
2023-04-18T02:46:36.630Z,5.67
2023-04-18T02:51:38.448Z,5.60
2023-04-18T02:56:40.305Z,5.59
2023-04-18T03:01:42.132Z,5.58
2023-04-18T03:06:43.944Z,5.63
2023-04-18T03:11:46.544Z,5.64
2023-04-18T03:16:48.668Z,5.61
2023-04-18T03:21:50.505Z,5.66
2023-04-18T03:26:52.240Z,5.68
2023-04-18T03:31:54.096Z,5.69
2023-04-18T03:36:55.967Z,5.71
2023-04-18T03:41:57.740Z,5.69
2023-04-18T03:46:59.992Z,5.66
2023-04-18T03:52:01.787Z,5.68
2023-04-18T03:57:03.709Z,5.69
2023-04-18T04:02:05.766Z,5.70
2023-04-18T04:07:07.623Z,5.68
2023-04-18T04:12:09.383Z,5.63
2023-04-18T04:17:11.229Z,5.62
2023-04-18T04:22:13.001Z,5.62
2023-04-18T04:27:14.886Z,5.67
2023-04-18T04:32:20.165Z,5.69
2023-04-18T04:37:22.050Z,5.69
2023-04-18T04:42:25.200Z,5.77
2023-04-18T04:47:27.104Z,5.78
2023-04-18T04:52:28.911Z,5.84
2023-04-18T04:57:30.793Z,5.88
2023-04-18T05:02:32.753Z,5.88
2023-04-18T05:07:34.534Z,5.93
2023-04-18T05:12:36.301Z,5.95
2023-04-18T05:17:38.163Z,5.98
2023-04-18T05:22:39.975Z,6.04
2023-04-18T05:27:46.588Z,6.07
2023-04-18T05:32:48.467Z,6.13
2023-04-18T05:37:50.250Z,6.20
2023-04-18T05:42:52.050Z,6.28
2023-04-18T05:47:53.936Z,6.57
2023-04-18T05:52:59.062Z,6.92
2023-04-18T05:58:01.001Z,7.40
2023-04-18T06:03:03.078Z,7.91
2023-04-18T06:08:05.043Z,8.44
2023-04-18T06:13:07.014Z,8.51
2023-04-18T06:18:08.883Z,8.25
2023-04-18T06:23:10.919Z,8.12
2023-04-18T06:28:12.689Z,8.11
2023-04-18T06:33:14.504Z,7.99
2023-04-18T06:38:16.371Z,7.89
2023-04-18T06:43:18.109Z,7.88
2023-04-18T06:48:19.880Z,7.83
2023-04-18T06:53:21.726Z,7.89
2023-04-18T06:58:23.510Z,7.96
2023-04-18T07:03:25.390Z,8.02
2023-04-18T07:08:27.218Z,7.99
2023-04-18T07:13:29.142Z,7.97
2023-04-18T07:18:37.833Z,8.01
2023-04-18T07:23:40.260Z,8.20
2023-04-18T07:28:42.063Z,9.87
2023-04-18T07:33:43.960Z,11.76
2023-04-18T07:38:46.350Z,13.15
2023-04-18T07:43:48.159Z,14.22
2023-04-18T07:48:51.133Z,15.15
2023-04-18T07:53:52.987Z,14.92
2023-04-18T07:58:54.836Z,13.70
2023-04-18T08:03:57.885Z,12.53
2023-04-18T08:09:03.123Z,11.85
2023-04-18T08:14:04.999Z,11.22
2023-04-18T08:19:06.848Z,10.83
2023-04-18T08:24:08.741Z,10.55
2023-04-18T08:29:10.494Z,10.39
2023-04-18T08:34:12.253Z,10.26
2023-04-18T08:39:14.302Z,10.21
2023-04-18T08:44:17.593Z,10.07
2023-04-18T08:49:22.433Z,9.95
2023-04-18T08:54:25.573Z,9.94
2023-04-18T08:59:30.478Z,10.00
2023-04-18T09:04:44.639Z,9.99
2023-04-18T09:09:53.484Z,9.92
2023-04-18T09:15:15.648Z,9.91
2023-04-18T09:20:42.230Z,10.12
2023-04-18T09:25:48.009Z,10.67
2023-04-18T09:30:52.508Z,10.78
2023-04-18T09:35:57.078Z,10.71
2023-04-18T09:41:12.516Z,11.05
2023-04-18T09:46:15.238Z,11.31
2023-04-18T09:51:18.319Z,11.72
2023-04-18T09:56:27.605Z,12.33
2023-04-18T10:01:30.782Z,12.78
2023-04-18T10:06:41.901Z,12.80
2023-04-18T10:11:44.636Z,12.74
2023-04-18T10:16:48.656Z,12.63
2023-04-18T10:21:59.513Z,12.54
2023-04-18T10:27:02.057Z,12.55
2023-04-18T10:32:07.244Z,12.64
2023-04-18T10:37:09.564Z,12.74
2023-04-18T10:42:11.334Z,12.56
2023-04-18T10:47:18.783Z,12.48
2023-04-18T10:52:20.627Z,12.65
2023-04-18T10:57:22.671Z,12.66
2023-04-18T11:02:32.347Z,12.74
2023-04-18T11:07:48.606Z,12.80
2023-04-18T11:12:51.190Z,12.60
2023-04-18T11:18:03.324Z,12.73
2023-04-18T11:23:25.531Z,13.05
2023-04-18T11:28:28.441Z,13.25
2023-04-18T11:33:30.317Z,13.19
2023-04-18T11:38:32.316Z,13.30
2023-04-18T11:43:34.328Z,13.37
2023-04-18T11:48:45.392Z,13.45
2023-04-18T11:53:47.258Z,13.56
2023-04-18T11:58:49.088Z,13.63
2023-04-18T12:04:08.493Z,13.57
2023-04-18T12:09:15.662Z,13.38
2023-04-18T12:14:22.015Z,13.19
2023-04-18T12:19:29.879Z,13.26
2023-04-18T12:24:32.247Z,13.17
2023-04-18T12:29:34.133Z,13.22
2023-04-18T12:34:35.904Z,13.36
2023-04-18T12:39:37.696Z,13.46
2023-04-18T12:44:39.424Z,13.50
2023-04-18T12:49:41.161Z,13.45
2023-04-18T12:54:42.870Z,13.49
2023-04-18T12:59:44.643Z,13.55
2023-04-18T13:04:46.493Z,13.59
2023-04-18T13:09:48.700Z,13.60
2023-04-18T13:14:50.462Z,13.54
2023-04-18T13:19:52.272Z,13.51
2023-04-18T13:24:54.641Z,13.47
2023-04-18T13:29:57.262Z,13.52
2023-04-18T13:34:59.107Z,13.50
2023-04-18T13:40:00.971Z,13.46
2023-04-18T13:45:03.354Z,13.46
2023-04-18T13:50:06.307Z,13.49
2023-04-18T13:55:10.606Z,13.52
2023-04-18T14:00:14.281Z,13.58
2023-04-18T14:05:16.411Z,13.67
2023-04-18T14:10:18.307Z,13.72
2023-04-18T14:15:20.272Z,13.74
2023-04-18T14:20:22.448Z,13.80
2023-04-18T14:25:24.444Z,13.85
2023-04-18T14:30:26.253Z,13.92
2023-04-18T14:35:28.033Z,13.97
2023-04-18T14:40:32.571Z,13.97
2023-04-18T14:45:34.875Z,13.98
2023-04-18T14:50:38.484Z,13.99
2023-04-18T14:55:40.440Z,13.94
2023-04-18T15:00:42.493Z,13.91
2023-04-18T15:05:46.466Z,13.84
2023-04-18T15:10:48.418Z,13.78
2023-04-18T15:15:56.155Z,13.74
2023-04-18T15:21:01.225Z,13.74
2023-04-18T15:26:03.095Z,13.70
2023-04-18T15:31:07.414Z,13.65
2023-04-18T15:36:10.016Z,13.59
2023-04-18T15:41:11.891Z,13.51
2023-04-18T15:46:13.814Z,13.48
2023-04-18T15:51:15.695Z,13.46
2023-04-18T15:56:17.484Z,13.45
2023-04-18T16:01:19.280Z,13.41
2023-04-18T16:06:24.175Z,13.39
2023-04-18T16:11:26.271Z,13.38
2023-04-18T16:16:28.416Z,13.39
2023-04-18T16:21:30.285Z,13.36
2023-04-18T16:26:32.163Z,13.35
2023-04-18T16:31:34.452Z,13.31
2023-04-18T16:36:36.242Z,13.26
2023-04-18T16:41:37.991Z,13.20
2023-04-18T16:46:39.904Z,13.12
2023-04-18T16:51:41.782Z,13.05
2023-04-18T16:56:44.772Z,13.01
2023-04-18T17:01:46.624Z,12.94
2023-04-18T17:06:50.305Z,12.84
2023-04-18T17:11:53.337Z,12.78
2023-04-18T17:16:55.262Z,12.71
2023-04-18T17:21:57.090Z,12.65
2023-04-18T17:27:00.186Z,12.59
2023-04-18T17:32:02.077Z,12.52
2023-04-18T17:37:05.284Z,12.46
2023-04-18T17:42:07.094Z,12.30
2023-04-18T17:47:08.936Z,12.20
2023-04-18T17:52:10.698Z,12.15
2023-04-18T17:57:12.628Z,12.08
2023-04-18T18:02:14.681Z,11.95
2023-04-18T18:07:16.596Z,11.83
2023-04-18T18:12:18.372Z,11.70
2023-04-18T18:17:20.372Z,11.61
2023-04-18T18:22:24.708Z,11.56
2023-04-18T18:27:26.476Z,11.52
2023-04-18T18:32:28.399Z,11.47
2023-04-18T18:37:30.239Z,11.37
2023-04-18T18:42:31.959Z,11.31
2023-04-18T18:47:34.355Z,11.25
2023-04-18T18:52:37.476Z,11.21
2023-04-18T18:57:39.342Z,11.01
2023-04-18T19:02:41.339Z,10.79
2023-04-18T19:07:43.389Z,10.63
2023-04-18T19:12:45.344Z,10.47
2023-04-18T19:17:47.197Z,10.43
2023-04-18T19:22:49.289Z,10.32
2023-04-18T19:27:51.190Z,10.26
2023-04-18T19:32:53.014Z,10.13
2023-04-18T19:38:01.308Z,9.99
2023-04-18T19:43:03.103Z,9.88
2023-04-18T19:48:05.707Z,9.79
2023-04-18T19:53:08.341Z,9.66
2023-04-18T19:58:10.150Z,9.55
2023-04-18T20:03:12.026Z,9.49
2023-04-18T20:08:13.922Z,9.42
2023-04-18T20:13:15.872Z,9.27
2023-04-18T20:18:17.928Z,9.13
2023-04-18T20:23:19.788Z,9.05
2023-04-18T20:28:21.669Z,8.95
2023-04-18T20:33:23.537Z,8.82
2023-04-18T20:38:26.129Z,8.79
2023-04-18T20:43:28.477Z,8.79
2023-04-18T20:48:30.258Z,8.74
2023-04-18T20:53:32.056Z,8.73
2023-04-18T20:58:33.917Z,8.67
2023-04-18T21:03:35.879Z,8.62
2023-04-18T21:08:39.478Z,8.55
2023-04-18T21:13:41.324Z,8.48
2023-04-18T21:18:43.197Z,8.34
2023-04-18T21:23:45.250Z,8.21
2023-04-18T21:29:04.544Z,8.07
2023-04-18T21:34:06.378Z,7.92
2023-04-18T21:39:08.320Z,7.86
2023-04-18T21:44:10.534Z,7.77
2023-04-18T21:49:12.288Z,7.63
2023-04-18T21:54:14.300Z,7.55
2023-04-18T21:59:16.312Z,7.50
2023-04-18T22:04:21.020Z,7.43
2023-04-18T22:09:23.445Z,7.34
2023-04-18T22:14:25.942Z,7.26
2023-04-18T22:19:29.325Z,7.21
2023-04-18T22:24:31.168Z,7.15
2023-04-18T22:29:33.035Z,7.08
2023-04-18T22:34:34.788Z,7.03
2023-04-18T22:39:36.556Z,6.93
2023-04-18T22:44:38.378Z,6.84
2023-04-18T22:49:40.878Z,6.81
2023-04-18T22:54:42.618Z,6.81
2023-04-18T22:59:44.543Z,6.78
2023-04-18T23:04:46.540Z,6.78
2023-04-18T23:09:48.418Z,6.79
2023-04-18T23:14:50.299Z,6.77
2023-04-18T23:19:52.049Z,6.82
2023-04-18T23:24:53.812Z,6.80
2023-04-18T23:29:55.586Z,6.77
2023-04-18T23:34:57.351Z,6.79
2023-04-18T23:40:05.005Z,6.72
2023-04-18T23:45:07.550Z,6.61
2023-04-18T23:50:10.185Z,6.54
2023-04-18T23:55:12.298Z,6.56
